Nickerson, Kansas
Current Conditions -  °F | °C
As of 1:52 AM on Wednesday 22 Oct 2014 (Local Time) from KHUT Reporting Station
Clear Clear  
Wind Chill: 62°   Ceiling: Unl
Heat Index: 62°   Visibility: 8mi
Dew Point: 57°   Wind: 8mph
Humidity: 84%   Direction: 150°SSE
Pressure: 30.03"   Gusts: NA
Location:  38.15°N, 98.08°W
Report Text: KHUT 220652Z AUTO 15007KT 8SM CLR 17/14 A3003 RMK AO2 SLP151 T01670139
Loading
Personal Weather Stations






























Interactive Weather Map
Tropical Storm Tracking
New forecast layout! Learn more

10-Day Weather Forecast

Advertisements
Track Severe Weather on mobile